AirNav   Bose Proflight Series 2 Wireless Aviation Headset
 
 890 users online  

3UT8 Little Sahara Medical Helipad #1 Heliport
Little Sahara Recreation Area, Utah, USA

GOING TO LITTLE SAHARA RECREATION AREA?


FAA INFORMATION EFFECTIVE 07 NOVEMBER 2019

Location

FAA Identifier: 3UT8
Lat/Long: 39-43-34.8800N 112-18-19.9100W
39-43.581333N 112-18.331833W
39.7263556,-112.3055306
(estimated)
Elevation: 5228 ft. / 1593 m (estimated)
Time zone: UTC -7 (UTC -6 during Daylight Saving Time)
Zip code: 84080

Heliport Operations

Heliport use: Private use. Permission required prior to landing
Activation date: 02/2015
Control tower: no
ARTCC: SALT LAKE CITY CENTER
FSS: CEDAR CITY FLIGHT SERVICE STATION
Attendance: 
Wind indicator: yes
Segmented circle: no

Nearby radio navigation aids

VOR radial/distance  VOR name  Freq  Var
DTAr004/27.1DELTA VORTAC116.1016E
FFUr191/36.9FAIRFIELD VORTAC116.6016E
PVUr208/39.8PROVO VOR/DME108.4015E

Heliport Services

Runway Information

Helipad H1

Dimensions: 50 x 50 ft. / 15 x 15 m
Surface: concrete
Runway edge lights: low intensity
Latitude: 39-43.581333N
Longitude: 112-18.331833W
Traffic pattern: leftleft

Heliport Ownership and Management from official FAA records

Ownership: Privately-owned
Owner: US BUREAU OF LAND MANAGEMENT
95 EAST 500 NORTH
FILLMORE, UT 84631
Phone 435-743-3100
Manager: MICHAEL GATES
95 EAST 500 NORTH
FILLMORE, UT 84631
Phone 435-743-3100
OUTDOOR RECREATION PLANNER FOR LITTLE SAHARA - 435-743-3124 - BLM_UT_LITTLESAHARA@BLM.GOV

Additional Remarks

FOR CD CTC SALT LAKE ARTCC AT 801-320-2568.

Instrument Procedures

There are no published instrument procedures at 3UT8.

Some nearby airports with instrument procedures:

U14 - Nephi Municipal Airport (20 nm E)
KDTA - Delta Municipal Airport (22 nm SW)
KSPK - Spanish Fork Airport Springville-Woodhouse Field (39 nm NE)
41U - Manti-Ephraim Airport (40 nm SE)
KPVU - Provo Municipal Airport (40 nm NE)
 
Loc | Ops | Rwys | IFR | FBO | Links
Com | Nav | Svcs | Stats | Notes
Aerial photo
No photo
 
Airport distance calculator
Flying to Little Sahara Medical Helipad #1 Heliport? Find the distance to fly.

From to 3UT8

Sunrise and sunset
Times for 20-Nov-2019
 Local
(UTC-7)
 Zulu
(UTC)
Morning civil twilight06:5113:51
Sunrise07:2114:21
Sunset17:0900:09
Evening civil twilight17:3800:38

Current date and time
Zulu (UTC)  20-Nov-2019 12:13:41
Local (UTC-7)  20-Nov-2019 05:13:41
 
METAR
KDTA 
27nm S 
201155Z AUTO 22008KT 4SM BKN004 OVC016 06/05 A2963 RMK AO1
KPVU 
40nm NE 
201156Z AUTO 00000KT 10SM BKN065 OVC085 09/06 A2960 RMK AO2 SLP995 60000 T00890056 10106 20067 58006
KDPG 
41nm NW 
192355Z 14003KT 40SM BKN180 BKN240 17/M07 A2963 RMK SLP016 T01651068 10199 20156 57016 LAST
TAF
KPVU 
40nm NE 
201134Z 2012/2112 VRB05KT P6SM -RA SCT035 OVC050 FM201500 32007KT 6SM RA BKN030 OVC050 FM202000 32010KT P6SM VCSH SCT035 OVC050
NOTAMs
Click for the latest NOTAMs
NOTAMs are issued by the DoD/FAA and will open in a separate window not controlled by AirNav.

 

 
 

Would you like to see your business listed on this page?

 If your business provides an interesting product or service to pilots, flight crews, aircraft, or users of the Little Sahara Medical Helipad #1 Heliport, you should consider listing it here.  To start the listing process, click on the button below
 
Add a business
 

Other Pages about Little Sahara Medical Helipad #1 Heliport

Update a link
 
Copyright © AirNav, LLC. All rights reserved. Privacy Policy  Contact